sensor_id;sensor_type;location;lat;lon;timestamp;P1;durP1;ratioP1;P2;durP2;ratioP2
8159;SDS011;27404;52.398;9.646;2024-01-11T00:00:44;35.43;;;15.47;;
8159;SDS011;27404;52.398;9.646;2024-01-11T00:03:09;42.00;;;15.40;;
8159;SDS011;27404;52.398;9.646;2024-01-11T00:05:35;33.93;;;15.67;;
8159;SDS011;27404;52.398;9.646;2024-01-11T00:08:01;34.90;;;15.77;;
8159;SDS011;27404;52.398;9.646;2024-01-11T00:10:27;30.30;;;13.77;;
8159;SDS011;27404;52.398;9.646;2024-01-11T00:12:53;30.20;;;13.93;;
8159;SDS011;27404;52.398;9.646;2024-01-11T00:15:19;35.07;;;15.27;;
8159;SDS011;27404;52.398;9.646;2024-01-11T00:17:44;33.33;;;14.30;;
8159;SDS011;27404;52.398;9.646;2024-01-11T00:20:10;35.03;;;14.23;;
8159;SDS011;27404;52.398;9.646;2024-01-11T00:22:36;31.33;;;13.90;;
8159;SDS011;27404;52.398;9.646;2024-01-11T00:25:02;29.30;;;14.40;;
8159;SDS011;27404;52.398;9.646;2024-01-11T00:27:29;31.73;;;14.50;;
8159;SDS011;27404;52.398;9.646;2024-01-11T00:29:54;35.17;;;14.57;;
8159;SDS011;27404;52.398;9.646;2024-01-11T00:32:20;31.50;;;14.23;;
8159;SDS011;27404;52.398;9.646;2024-01-11T00:34:46;32.83;;;15.40;;
8159;SDS011;27404;52.398;9.646;2024-01-11T00:37:12;37.47;;;15.33;;
8159;SDS011;27404;52.398;9.646;2024-01-11T00:39:38;31.97;;;13.67;;
8159;SDS011;27404;52.398;9.646;2024-01-11T00:42:03;30.23;;;13.67;;
8159;SDS011;27404;52.398;9.646;2024-01-11T00:44:29;31.27;;;13.47;;
8159;SDS011;27404;52.398;9.646;2024-01-11T00:46:55;30.73;;;14.30;;
8159;SDS011;27404;52.398;9.646;2024-01-11T00:49:20;33.47;;;13.93;;
8159;SDS011;27404;52.398;9.646;2024-01-11T00:51:46;31.87;;;14.30;;
8159;SDS011;27404;52.398;9.646;2024-01-11T00:54:12;30.20;;;13.80;;
8159;SDS011;27404;52.398;9.646;2024-01-11T00:56:37;26.57;;;12.97;;
8159;SDS011;27404;52.398;9.646;2024-01-11T00:59:03;28.10;;;12.93;;
8159;SDS011;27404;52.398;9.646;2024-01-11T01:01:29;29.10;;;13.57;;
8159;SDS011;27404;52.398;9.646;2024-01-11T01:03:54;28.87;;;13.87;;
8159;SDS011;27404;52.398;9.646;2024-01-11T01:06:20;31.03;;;13.10;;
8159;SDS011;27404;52.398;9.646;2024-01-11T01:08:45;34.70;;;13.60;;
8159;SDS011;27404;52.398;9.646;2024-01-11T01:11:11;32.23;;;12.70;;
8159;SDS011;27404;52.398;9.646;2024-01-11T01:13:36;33.53;;;13.37;;
8159;SDS011;27404;52.398;9.646;2024-01-11T01:16:02;26.83;;;11.90;;
8159;SDS011;27404;52.398;9.646;2024-01-11T01:18:28;26.37;;;11.97;;
8159;SDS011;27404;52.398;9.646;2024-01-11T01:20:53;30.03;;;12.03;;
8159;SDS011;27404;52.398;9.646;2024-01-11T01:23:19;27.17;;;11.83;;
8159;SDS011;27404;52.398;9.646;2024-01-11T01:25:45;27.17;;;11.90;;
8159;SDS011;27404;52.398;9.646;2024-01-11T01:28:10;26.77;;;11.93;;
8159;SDS011;27404;52.398;9.646;2024-01-11T01:30:36;32.83;;;12.87;;
8159;SDS011;27404;52.398;9.646;2024-01-11T01:33:01;29.93;;;12.03;;
8159;SDS011;27404;52.398;9.646;2024-01-11T01:35:27;28.53;;;11.57;;
8159;SDS011;27404;52.398;9.646;2024-01-11T01:37:53;28.77;;;11.70;;
8159;SDS011;27404;52.398;9.646;2024-01-11T01:40:18;31.57;;;11.70;;
8159;SDS011;27404;52.398;9.646;2024-01-11T01:42:44;24.30;;;11.47;;
8159;SDS011;27404;52.398;9.646;2024-01-11T01:45:11;24.97;;;12.27;;
8159;SDS011;27404;52.398;9.646;2024-01-11T01:47:37;33.27;;;13.40;;
8159;SDS011;27404;52.398;9.646;2024-01-11T01:50:05;27.10;;;12.60;;
8159;SDS011;27404;52.398;9.646;2024-01-11T01:52:31;25.43;;;12.47;;
8159;SDS011;27404;52.398;9.646;2024-01-11T01:54:59;31.90;;;12.80;;
8159;SDS011;27404;52.398;9.646;2024-01-11T01:57:26;25.13;;;11.23;;
8159;SDS011;27404;52.398;9.646;2024-01-11T01:59:52;29.50;;;12.70;;
8159;SDS011;27404;52.398;9.646;2024-01-11T02:02:21;25.67;;;11.73;;
8159;SDS011;27404;52.398;9.646;2024-01-11T02:04:47;24.77;;;11.33;;
8159;SDS011;27404;52.398;9.646;2024-01-11T02:07:13;31.20;;;12.40;;
8159;SDS011;27404;52.398;9.646;2024-01-11T02:09:39;30.47;;;13.00;;
8159;SDS011;27404;52.398;9.646;2024-01-11T02:12:05;26.33;;;11.67;;
8159;SDS011;27404;52.398;9.646;2024-01-11T02:14:34;26.30;;;11.27;;
8159;SDS011;27404;52.398;9.646;2024-01-11T02:16:59;26.73;;;12.73;;
8159;SDS011;27404;52.398;9.646;2024-01-11T02:19:27;23.33;;;10.97;;
8159;SDS011;27404;52.398;9.646;2024-01-11T02:21:52;27.93;;;12.07;;
8159;SDS011;27404;52.398;9.646;2024-01-11T02:24:20;23.73;;;11.10;;
8159;SDS011;27404;52.398;9.646;2024-01-11T02:26:58;28.00;;;11.73;;
8159;SDS011;27404;52.398;9.646;2024-01-11T02:29:25;25.70;;;11.67;;
8159;SDS011;27404;52.398;9.646;2024-01-11T02:31:52;24.63;;;11.73;;
8159;SDS011;27404;52.398;9.646;2024-01-11T02:34:18;25.73;;;11.70;;
8159;SDS011;27404;52.398;9.646;2024-01-11T02:36:43;25.70;;;11.57;;
8159;SDS011;27404;52.398;9.646;2024-01-11T02:39:09;26.00;;;11.57;;
8159;SDS011;27404;52.398;9.646;2024-01-11T02:41:36;23.47;;;11.33;;
8159;SDS011;27404;52.398;9.646;2024-01-11T02:44:02;29.03;;;11.50;;
8159;SDS011;27404;52.398;9.646;2024-01-11T02:46:28;28.07;;;12.23;;
8159;SDS011;27404;52.398;9.646;2024-01-11T02:48:54;26.27;;;12.07;;
8159;SDS011;27404;52.398;9.646;2024-01-11T02:51:19;25.40;;;10.53;;
8159;SDS011;27404;52.398;9.646;2024-01-11T02:53:45;25.77;;;11.40;;
8159;SDS011;27404;52.398;9.646;2024-01-11T02:56:10;31.13;;;12.87;;
8159;SDS011;27404;52.398;9.646;2024-01-11T02:58:36;29.53;;;12.97;;
8159;SDS011;27404;52.398;9.646;2024-01-11T03:01:01;28.87;;;12.57;;
8159;SDS011;27404;52.398;9.646;2024-01-11T03:03:27;30.17;;;12.97;;
8159;SDS011;27404;52.398;9.646;2024-01-11T03:05:52;24.87;;;11.83;;
8159;SDS011;27404;52.398;9.646;2024-01-11T03:08:18;32.37;;;14.07;;
8159;SDS011;27404;52.398;9.646;2024-01-11T03:10:43;29.87;;;12.83;;
8159;SDS011;27404;52.398;9.646;2024-01-11T03:13:09;31.37;;;13.90;;
8159;SDS011;27404;52.398;9.646;2024-01-11T03:15:34;29.37;;;13.43;;
8159;SDS011;27404;52.398;9.646;2024-01-11T03:18:00;27.10;;;12.67;;
8159;SDS011;27404;52.398;9.646;2024-01-11T03:20:25;30.30;;;13.20;;
8159;SDS011;27404;52.398;9.646;2024-01-11T03:22:51;29.47;;;12.80;;
8159;SDS011;27404;52.398;9.646;2024-01-11T03:25:17;28.60;;;12.07;;
8159;SDS011;27404;52.398;9.646;2024-01-11T03:27:43;30.73;;;12.73;;
8159;SDS011;27404;52.398;9.646;2024-01-11T03:30:08;32.43;;;12.03;;
8159;SDS011;27404;52.398;9.646;2024-01-11T03:32:34;28.53;;;12.63;;
8159;SDS011;27404;52.398;9.646;2024-01-11T03:35:00;30.07;;;13.50;;
8159;SDS011;27404;52.398;9.646;2024-01-11T03:37:25;26.40;;;11.67;;
8159;SDS011;27404;52.398;9.646;2024-01-11T03:39:51;29.33;;;12.63;;
8159;SDS011;27404;52.398;9.646;2024-01-11T03:42:16;33.60;;;13.13;;
8159;SDS011;27404;52.398;9.646;2024-01-11T03:44:42;26.67;;;12.57;;
8159;SDS011;27404;52.398;9.646;2024-01-11T03:47:07;27.90;;;11.77;;
8159;SDS011;27404;52.398;9.646;2024-01-11T03:49:33;30.43;;;13.03;;
8159;SDS011;27404;52.398;9.646;2024-01-11T03:51:58;27.80;;;12.80;;
8159;SDS011;27404;52.398;9.646;2024-01-11T03:54:24;24.37;;;10.60;;
8159;SDS011;27404;52.398;9.646;2024-01-11T03:56:49;28.03;;;12.40;;
8159;SDS011;27404;52.398;9.646;2024-01-11T03:59:15;27.23;;;10.47;;
8159;SDS011;27404;52.398;9.646;2024-01-11T04:01:41;29.53;;;13.33;;
8159;SDS011;27404;52.398;9.646;2024-01-11T04:04:08;28.57;;;12.50;;
8159;SDS011;27404;52.398;9.646;2024-01-11T04:06:33;29.60;;;12.53;;
8159;SDS011;27404;52.398;9.646;2024-01-11T04:08:59;31.87;;;13.80;;
8159;SDS011;27404;52.398;9.646;2024-01-11T04:11:27;32.40;;;12.50;;
8159;SDS011;27404;52.398;9.646;2024-01-11T04:13:54;30.47;;;11.70;;
8159;SDS011;27404;52.398;9.646;2024-01-11T04:16:19;31.57;;;12.00;;
8159;SDS011;27404;52.398;9.646;2024-01-11T04:18:45;33.50;;;13.47;;
8159;SDS011;27404;52.398;9.646;2024-01-11T04:21:24;29.67;;;12.63;;
8159;SDS011;27404;52.398;9.646;2024-01-11T04:23:53;28.07;;;12.43;;
8159;SDS011;27404;52.398;9.646;2024-01-11T04:26:20;26.47;;;11.87;;
8159;SDS011;27404;52.398;9.646;2024-01-11T04:28:46;27.03;;;12.10;;
8159;SDS011;27404;52.398;9.646;2024-01-11T04:31:12;31.40;;;12.77;;
8159;SDS011;27404;52.398;9.646;2024-01-11T04:33:42;28.07;;;12.30;;
8159;SDS011;27404;52.398;9.646;2024-01-11T04:36:09;31.20;;;12.53;;
8159;SDS011;27404;52.398;9.646;2024-01-11T04:38:35;25.93;;;11.20;;
8159;SDS011;27404;52.398;9.646;2024-01-11T04:41:02;28.53;;;11.80;;
8159;SDS011;27404;52.398;9.646;2024-01-11T04:43:32;24.63;;;12.27;;
8159;SDS011;27404;52.398;9.646;2024-01-11T04:45:58;28.33;;;11.93;;
8159;SDS011;27404;52.398;9.646;2024-01-11T04:48:23;25.53;;;11.33;;
8159;SDS011;27404;52.398;9.646;2024-01-11T04:50:49;25.07;;;11.43;;
8159;SDS011;27404;52.398;9.646;2024-01-11T04:53:14;26.73;;;12.27;;
8159;SDS011;27404;52.398;9.646;2024-01-11T04:55:40;28.63;;;12.20;;
8159;SDS011;27404;52.398;9.646;2024-01-11T04:58:06;26.27;;;11.53;;
8159;SDS011;27404;52.398;9.646;2024-01-11T05:00:31;30.90;;;12.63;;
8159;SDS011;27404;52.398;9.646;2024-01-11T05:02:57;29.60;;;11.37;;
8159;SDS011;27404;52.398;9.646;2024-01-11T05:05:22;30.20;;;11.63;;
8159;SDS011;27404;52.398;9.646;2024-01-11T05:07:48;26.43;;;12.27;;
8159;SDS011;27404;52.398;9.646;2024-01-11T05:10:13;28.10;;;11.60;;
8159;SDS011;27404;52.398;9.646;2024-01-11T05:12:39;30.50;;;12.10;;
8159;SDS011;27404;52.398;9.646;2024-01-11T05:15:05;27.60;;;11.73;;
8159;SDS011;27404;52.398;9.646;2024-01-11T05:17:33;29.87;;;12.67;;
8159;SDS011;27404;52.398;9.646;2024-01-11T05:19:59;26.70;;;11.77;;
8159;SDS011;27404;52.398;9.646;2024-01-11T05:22:24;28.97;;;12.00;;
8159;SDS011;27404;52.398;9.646;2024-01-11T05:24:50;26.47;;;11.37;;
8159;SDS011;27404;52.398;9.646;2024-01-11T05:27:15;26.20;;;11.70;;
8159;SDS011;27404;52.398;9.646;2024-01-11T05:29:41;32.53;;;12.93;;
8159;SDS011;27404;52.398;9.646;2024-01-11T05:32:06;32.23;;;13.13;;
8159;SDS011;27404;52.398;9.646;2024-01-11T05:34:32;33.43;;;13.13;;
8159;SDS011;27404;52.398;9.646;2024-01-11T05:36:57;31.47;;;12.47;;
8159;SDS011;27404;52.398;9.646;2024-01-11T05:39:23;26.30;;;12.27;;
8159;SDS011;27404;52.398;9.646;2024-01-11T05:41:48;27.60;;;12.57;;
8159;SDS011;27404;52.398;9.646;2024-01-11T05:44:14;32.80;;;12.50;;
8159;SDS011;27404;52.398;9.646;2024-01-11T05:46:39;29.67;;;12.63;;
8159;SDS011;27404;52.398;9.646;2024-01-11T05:49:05;30.33;;;11.80;;
8159;SDS011;27404;52.398;9.646;2024-01-11T05:51:30;30.70;;;12.90;;
8159;SDS011;27404;52.398;9.646;2024-01-11T05:53:56;23.17;;;11.07;;
8159;SDS011;27404;52.398;9.646;2024-01-11T05:56:22;31.93;;;13.37;;
8159;SDS011;27404;52.398;9.646;2024-01-11T05:58:47;27.67;;;12.13;;
8159;SDS011;27404;52.398;9.646;2024-01-11T06:01:13;28.57;;;12.67;;
8159;SDS011;27404;52.398;9.646;2024-01-11T06:03:38;27.27;;;12.03;;
8159;SDS011;27404;52.398;9.646;2024-01-11T06:06:04;32.50;;;12.87;;
8159;SDS011;27404;52.398;9.646;2024-01-11T06:08:30;25.53;;;11.67;;
8159;SDS011;27404;52.398;9.646;2024-01-11T06:10:56;30.23;;;12.87;;
8159;SDS011;27404;52.398;9.646;2024-01-11T06:13:24;31.90;;;12.73;;
8159;SDS011;27404;52.398;9.646;2024-01-11T06:15:51;26.53;;;12.17;;
8159;SDS011;27404;52.398;9.646;2024-01-11T06:18:16;27.27;;;12.73;;
8159;SDS011;27404;52.398;9.646;2024-01-11T06:20:42;28.07;;;12.30;;
8159;SDS011;27404;52.398;9.646;2024-01-11T06:23:07;35.50;;;13.23;;
8159;SDS011;27404;52.398;9.646;2024-01-11T06:25:33;32.23;;;13.07;;
8159;SDS011;27404;52.398;9.646;2024-01-11T06:27:59;30.00;;;13.10;;
8159;SDS011;27404;52.398;9.646;2024-01-11T06:30:24;26.43;;;12.47;;
8159;SDS011;27404;52.398;9.646;2024-01-11T06:32:50;29.20;;;12.60;;
8159;SDS011;27404;52.398;9.646;2024-01-11T06:35:16;32.73;;;13.20;;
8159;SDS011;27404;52.398;9.646;2024-01-11T06:37:41;33.03;;;13.07;;
8159;SDS011;27404;52.398;9.646;2024-01-11T06:40:07;27.43;;;12.93;;
8159;SDS011;27404;52.398;9.646;2024-01-11T06:42:33;26.83;;;11.93;;
8159;SDS011;27404;52.398;9.646;2024-01-11T06:44:59;32.87;;;12.67;;
8159;SDS011;27404;52.398;9.646;2024-01-11T06:47:25;31.13;;;13.77;;
8159;SDS011;27404;52.398;9.646;2024-01-11T06:49:51;25.67;;;12.07;;
8159;SDS011;27404;52.398;9.646;2024-01-11T06:52:16;33.17;;;12.17;;
8159;SDS011;27404;52.398;9.646;2024-01-11T06:54:42;32.80;;;14.13;;
8159;SDS011;27404;52.398;9.646;2024-01-11T06:57:07;31.23;;;13.40;;
8159;SDS011;27404;52.398;9.646;2024-01-11T06:59:33;28.70;;;12.33;;
8159;SDS011;27404;52.398;9.646;2024-01-11T07:01:59;30.77;;;13.13;;
8159;SDS011;27404;52.398;9.646;2024-01-11T07:04:24;31.17;;;12.23;;
8159;SDS011;27404;52.398;9.646;2024-01-11T07:06:50;30.00;;;13.27;;
8159;SDS011;27404;52.398;9.646;2024-01-11T07:09:15;28.37;;;12.77;;
8159;SDS011;27404;52.398;9.646;2024-01-11T07:11:42;36.67;;;14.23;;
8159;SDS011;27404;52.398;9.646;2024-01-11T07:14:09;32.07;;;12.77;;
8159;SDS011;27404;52.398;9.646;2024-01-11T07:16:34;38.97;;;16.73;;
8159;SDS011;27404;52.398;9.646;2024-01-11T07:19:01;33.43;;;14.00;;
8159;SDS011;27404;52.398;9.646;2024-01-11T07:21:26;33.60;;;15.50;;
8159;SDS011;27404;52.398;9.646;2024-01-11T07:23:56;32.83;;;13.23;;
8159;SDS011;27404;52.398;9.646;2024-01-11T07:26:23;32.87;;;13.70;;
8159;SDS011;27404;52.398;9.646;2024-01-11T07:28:49;30.17;;;13.40;;
8159;SDS011;27404;52.398;9.646;2024-01-11T07:31:15;31.53;;;13.43;;
8159;SDS011;27404;52.398;9.646;2024-01-11T07:33:41;34.23;;;14.30;;
8159;SDS011;27404;52.398;9.646;2024-01-11T07:36:06;35.27;;;15.83;;
8159;SDS011;27404;52.398;9.646;2024-01-11T07:38:32;35.87;;;15.23;;
8159;SDS011;27404;52.398;9.646;2024-01-11T07:40:58;29.93;;;14.30;;
8159;SDS011;27404;52.398;9.646;2024-01-11T07:43:23;35.93;;;14.90;;
8159;SDS011;27404;52.398;9.646;2024-01-11T07:45:49;31.73;;;13.27;;
8159;SDS011;27404;52.398;9.646;2024-01-11T07:48:15;31.53;;;14.07;;
8159;SDS011;27404;52.398;9.646;2024-01-11T07:50:40;31.00;;;13.67;;
8159;SDS011;27404;52.398;9.646;2024-01-11T07:53:06;34.93;;;13.17;;
8159;SDS011;27404;52.398;9.646;2024-01-11T07:55:32;34.73;;;13.83;;
8159;SDS011;27404;52.398;9.646;2024-01-11T07:57:57;31.90;;;14.17;;
8159;SDS011;27404;52.398;9.646;2024-01-11T08:00:23;31.63;;;13.57;;
8159;SDS011;27404;52.398;9.646;2024-01-11T08:02:49;33.97;;;14.40;;
8159;SDS011;27404;52.398;9.646;2024-01-11T08:05:14;35.70;;;14.17;;
8159;SDS011;27404;52.398;9.646;2024-01-11T08:07:40;33.10;;;14.23;;
8159;SDS011;27404;52.398;9.646;2024-01-11T08:10:07;38.47;;;15.33;;
8159;SDS011;27404;52.398;9.646;2024-01-11T08:12:35;35.37;;;14.47;;
8159;SDS011;27404;52.398;9.646;2024-01-11T08:15:01;33.97;;;14.03;;
8159;SDS011;27404;52.398;9.646;2024-01-11T08:17:27;37.00;;;14.93;;
8159;SDS011;27404;52.398;9.646;2024-01-11T08:19:53;36.23;;;14.13;;
8159;SDS011;27404;52.398;9.646;2024-01-11T08:22:20;34.47;;;14.47;;
8159;SDS011;27404;52.398;9.646;2024-01-11T08:24:46;34.23;;;13.47;;
8159;SDS011;27404;52.398;9.646;2024-01-11T08:27:12;33.33;;;13.97;;
8159;SDS011;27404;52.398;9.646;2024-01-11T08:29:38;33.33;;;15.30;;
8159;SDS011;27404;52.398;9.646;2024-01-11T08:32:04;39.30;;;15.73;;
8159;SDS011;27404;52.398;9.646;2024-01-11T08:34:30;35.33;;;14.90;;
8159;SDS011;27404;52.398;9.646;2024-01-11T08:36:56;40.50;;;15.67;;
8159;SDS011;27404;52.398;9.646;2024-01-11T08:39:21;34.30;;;14.53;;
8159;SDS011;27404;52.398;9.646;2024-01-11T08:41:48;34.93;;;14.83;;
8159;SDS011;27404;52.398;9.646;2024-01-11T08:44:13;37.33;;;15.07;;
8159;SDS011;27404;52.398;9.646;2024-01-11T08:46:39;33.33;;;14.50;;
8159;SDS011;27404;52.398;9.646;2024-01-11T08:49:04;31.67;;;13.80;;
8159;SDS011;27404;52.398;9.646;2024-01-11T08:51:30;36.80;;;15.00;;
8159;SDS011;27404;52.398;9.646;2024-01-11T08:53:57;32.07;;;14.37;;
8159;SDS011;27404;52.398;9.646;2024-01-11T08:56:23;36.17;;;15.37;;
8159;SDS011;27404;52.398;9.646;2024-01-11T08:58:48;37.60;;;16.13;;
8159;SDS011;27404;52.398;9.646;2024-01-11T09:01:14;35.23;;;15.33;;
8159;SDS011;27404;52.398;9.646;2024-01-11T09:03:40;34.17;;;15.17;;
8159;SDS011;27404;52.398;9.646;2024-01-11T09:06:06;36.80;;;15.67;;
8159;SDS011;27404;52.398;9.646;2024-01-11T09:08:32;35.80;;;15.87;;
8159;SDS011;27404;52.398;9.646;2024-01-11T09:10:58;36.17;;;16.30;;
8159;SDS011;27404;52.398;9.646;2024-01-11T09:13:25;37.57;;;16.30;;
8159;SDS011;27404;52.398;9.646;2024-01-11T09:15:53;34.03;;;15.40;;
8159;SDS011;27404;52.398;9.646;2024-01-11T09:18:20;35.70;;;16.53;;
8159;SDS011;27404;52.398;9.646;2024-01-11T09:20:46;38.43;;;15.97;;
8159;SDS011;27404;52.398;9.646;2024-01-11T09:23:12;35.67;;;16.10;;
8159;SDS011;27404;52.398;9.646;2024-01-11T09:25:38;33.37;;;14.57;;
8159;SDS011;27404;52.398;9.646;2024-01-11T09:28:04;34.83;;;15.70;;
8159;SDS011;27404;52.398;9.646;2024-01-11T09:30:30;34.10;;;14.60;;
8159;SDS011;27404;52.398;9.646;2024-01-11T09:32:55;32.43;;;14.70;;
8159;SDS011;27404;52.398;9.646;2024-01-11T09:35:21;34.80;;;15.27;;
8159;SDS011;27404;52.398;9.646;2024-01-11T09:37:48;33.53;;;15.07;;
8159;SDS011;27404;52.398;9.646;2024-01-11T09:40:14;39.03;;;15.73;;
8159;SDS011;27404;52.398;9.646;2024-01-11T09:42:42;36.43;;;16.57;;
8159;SDS011;27404;52.398;9.646;2024-01-11T09:45:09;36.43;;;17.03;;
8159;SDS011;27404;52.398;9.646;2024-01-11T09:47:37;34.60;;;16.03;;
8159;SDS011;27404;52.398;9.646;2024-01-11T09:50:04;38.07;;;16.37;;
8159;SDS011;27404;52.398;9.646;2024-01-11T09:52:30;34.30;;;14.87;;
8159;SDS011;27404;52.398;9.646;2024-01-11T09:54:59;36.83;;;16.37;;
8159;SDS011;27404;52.398;9.646;2024-01-11T09:57:29;35.50;;;15.47;;
8159;SDS011;27404;52.398;9.646;2024-01-11T09:59:57;31.80;;;14.30;;
8159;SDS011;27404;52.398;9.646;2024-01-11T10:02:23;33.50;;;15.10;;
8159;SDS011;27404;52.398;9.646;2024-01-11T10:04:53;32.53;;;14.87;;
8159;SDS011;27404;52.398;9.646;2024-01-11T10:07:21;37.57;;;15.60;;
8159;SDS011;27404;52.398;9.646;2024-01-11T10:09:48;33.67;;;14.50;;
8159;SDS011;27404;52.398;9.646;2024-01-11T10:12:14;37.10;;;16.30;;
8159;SDS011;27404;52.398;9.646;2024-01-11T10:14:40;34.93;;;14.50;;
8159;SDS011;27404;52.398;9.646;2024-01-11T10:17:06;33.67;;;15.73;;
8159;SDS011;27404;52.398;9.646;2024-01-11T10:19:32;34.90;;;15.47;;
8159;SDS011;27404;52.398;9.646;2024-01-11T10:21:57;33.47;;;15.07;;
8159;SDS011;27404;52.398;9.646;2024-01-11T10:24:26;29.47;;;14.27;;
8159;SDS011;27404;52.398;9.646;2024-01-11T10:26:58;36.97;;;15.67;;
8159;SDS011;27404;52.398;9.646;2024-01-11T10:29:32;32.57;;;14.60;;
8159;SDS011;27404;52.398;9.646;2024-01-11T10:32:01;28.57;;;13.83;;
8159;SDS011;27404;52.398;9.646;2024-01-11T10:34:28;40.00;;;16.07;;
8159;SDS011;27404;52.398;9.646;2024-01-11T10:36:54;33.83;;;15.07;;
8159;SDS011;27404;52.398;9.646;2024-01-11T10:39:21;37.90;;;16.47;;
8159;SDS011;27404;52.398;9.646;2024-01-11T10:42:00;36.23;;;15.60;;
8159;SDS011;27404;52.398;9.646;2024-01-11T10:44:30;37.23;;;15.37;;
8159;SDS011;27404;52.398;9.646;2024-01-11T10:46:59;37.43;;;16.60;;
8159;SDS011;27404;52.398;9.646;2024-01-11T10:49:27;31.27;;;15.13;;
8159;SDS011;27404;52.398;9.646;2024-01-11T10:51:53;31.97;;;15.03;;
8159;SDS011;27404;52.398;9.646;2024-01-11T10:54:27;32.23;;;14.40;;
8159;SDS011;27404;52.398;9.646;2024-01-11T10:56:54;33.67;;;14.20;;
8159;SDS011;27404;52.398;9.646;2024-01-11T10:59:21;30.20;;;13.93;;
8159;SDS011;27404;52.398;9.646;2024-01-11T11:01:54;29.17;;;13.47;;
8159;SDS011;27404;52.398;9.646;2024-01-11T11:04:22;26.60;;;12.20;;
8159;SDS011;27404;52.398;9.646;2024-01-11T11:06:54;34.27;;;13.93;;
8159;SDS011;27404;52.398;9.646;2024-01-11T11:09:24;31.10;;;13.40;;
8159;SDS011;27404;52.398;9.646;2024-01-11T11:11:51;27.93;;;13.03;;
8159;SDS011;27404;52.398;9.646;2024-01-11T11:14:21;28.77;;;13.43;;
8159;SDS011;27404;52.398;9.646;2024-01-11T11:16:47;26.13;;;12.43;;
8159;SDS011;27404;52.398;9.646;2024-01-11T11:19:14;33.70;;;12.90;;
8159;SDS011;27404;52.398;9.646;2024-01-11T11:21:43;26.70;;;12.33;;
8159;SDS011;27404;52.398;9.646;2024-01-11T11:24:10;33.00;;;12.87;;
8159;SDS011;27404;52.398;9.646;2024-01-11T11:26:36;27.37;;;12.03;;
8159;SDS011;27404;52.398;9.646;2024-01-11T11:29:03;30.50;;;13.40;;
8159;SDS011;27404;52.398;9.646;2024-01-11T11:31:41;27.03;;;12.97;;
8159;SDS011;27404;52.398;9.646;2024-01-11T11:34:11;28.87;;;12.33;;
8159;SDS011;27404;52.398;9.646;2024-01-11T11:36:39;27.33;;;12.73;;
8159;SDS011;27404;52.398;9.646;2024-01-11T11:39:05;31.10;;;13.33;;
8159;SDS011;27404;52.398;9.646;2024-01-11T11:41:31;27.43;;;12.27;;
8159;SDS011;27404;52.398;9.646;2024-01-11T11:44:03;26.47;;;11.67;;
8159;SDS011;27404;52.398;9.646;2024-01-11T11:46:30;28.90;;;11.97;;
8159;SDS011;27404;52.398;9.646;2024-01-11T11:48:57;26.43;;;12.37;;
8159;SDS011;27404;52.398;9.646;2024-01-11T11:51:23;27.70;;;11.73;;
8159;SDS011;27404;52.398;9.646;2024-01-11T11:53:49;23.87;;;10.83;;
8159;SDS011;27404;52.398;9.646;2024-01-11T11:56:17;25.47;;;12.23;;
8159;SDS011;27404;52.398;9.646;2024-01-11T11:58:44;26.07;;;11.70;;
8159;SDS011;27404;52.398;9.646;2024-01-11T12:01:12;23.43;;;10.63;;
8159;SDS011;27404;52.398;9.646;2024-01-11T12:03:40;22.20;;;9.83;;
8159;SDS011;27404;52.398;9.646;2024-01-11T12:06:07;23.30;;;10.73;;
8159;SDS011;27404;52.398;9.646;2024-01-11T12:08:35;24.27;;;11.07;;
8159;SDS011;27404;52.398;9.646;2024-01-11T12:11:02;23.63;;;10.73;;
8159;SDS011;27404;52.398;9.646;2024-01-11T12:13:28;27.67;;;12.37;;
8159;SDS011;27404;52.398;9.646;2024-01-11T12:15:54;27.77;;;12.40;;
8159;SDS011;27404;52.398;9.646;2024-01-11T12:18:20;25.13;;;10.90;;
8159;SDS011;27404;52.398;9.646;2024-01-11T12:20:46;24.67;;;11.00;;
8159;SDS011;27404;52.398;9.646;2024-01-11T12:23:11;26.03;;;11.37;;
8159;SDS011;27404;52.398;9.646;2024-01-11T12:25:39;27.87;;;11.47;;
8159;SDS011;27404;52.398;9.646;2024-01-11T12:28:06;26.00;;;11.37;;
8159;SDS011;27404;52.398;9.646;2024-01-11T12:30:31;24.07;;;10.73;;
8159;SDS011;27404;52.398;9.646;2024-01-11T12:32:58;28.40;;;12.03;;
8159;SDS011;27404;52.398;9.646;2024-01-11T12:35:26;29.23;;;11.63;;
8159;SDS011;27404;52.398;9.646;2024-01-11T12:38:03;25.87;;;10.10;;
8159;SDS011;27404;52.398;9.646;2024-01-11T12:40:34;27.10;;;11.00;;
8159;SDS011;27404;52.398;9.646;2024-01-11T12:43:02;23.27;;;10.67;;
8159;SDS011;27404;52.398;9.646;2024-01-11T12:45:28;27.50;;;11.90;;
8159;SDS011;27404;52.398;9.646;2024-01-11T12:47:54;29.17;;;13.93;;
8159;SDS011;27404;52.398;9.646;2024-01-11T12:50:25;30.33;;;12.83;;
8159;SDS011;27404;52.398;9.646;2024-01-11T12:56:01;26.13;;;11.57;;
8159;SDS011;27404;52.398;9.646;2024-01-11T12:58:29;21.57;;;10.27;;
8159;SDS011;27404;52.398;9.646;2024-01-11T13:00:54;22.83;;;10.17;;
8159;SDS011;27404;52.398;9.646;2024-01-11T13:03:20;29.80;;;11.17;;
8159;SDS011;27404;52.398;9.646;2024-01-11T13:05:46;20.97;;;9.17;;
8159;SDS011;27404;52.398;9.646;2024-01-11T13:08:12;24.50;;;10.53;;
8159;SDS011;27404;52.398;9.646;2024-01-11T13:10:37;21.83;;;10.93;;
8159;SDS011;27404;52.398;9.646;2024-01-11T13:13:03;20.90;;;10.27;;
8159;SDS011;27404;52.398;9.646;2024-01-11T13:15:30;23.73;;;10.87;;
8159;SDS011;27404;52.398;9.646;2024-01-11T13:17:58;25.80;;;11.20;;
8159;SDS011;27404;52.398;9.646;2024-01-11T13:20:24;27.00;;;11.57;;
8159;SDS011;27404;52.398;9.646;2024-01-11T13:22:53;24.83;;;10.83;;
8159;SDS011;27404;52.398;9.646;2024-01-11T13:25:36;24.77;;;10.87;;
8159;SDS011;27404;52.398;9.646;2024-01-11T13:28:01;26.83;;;11.90;;
8159;SDS011;27404;52.398;9.646;2024-01-11T13:30:27;25.93;;;10.63;;
8159;SDS011;27404;52.398;9.646;2024-01-11T13:32:53;25.67;;;11.77;;
8159;SDS011;27404;52.398;9.646;2024-01-11T13:35:18;24.83;;;12.70;;
8159;SDS011;27404;52.398;9.646;2024-01-11T13:37:45;26.20;;;11.07;;
8159;SDS011;27404;52.398;9.646;2024-01-11T13:40:11;28.97;;;11.30;;
8159;SDS011;27404;52.398;9.646;2024-01-11T13:42:39;28.67;;;12.50;;
8159;SDS011;27404;52.398;9.646;2024-01-11T13:45:05;28.47;;;12.50;;
8159;SDS011;27404;52.398;9.646;2024-01-11T13:47:34;25.97;;;12.00;;
8159;SDS011;27404;52.398;9.646;2024-01-11T13:50:00;24.47;;;12.37;;
8159;SDS011;27404;52.398;9.646;2024-01-11T13:52:26;25.23;;;12.13;;
8159;SDS011;27404;52.398;9.646;2024-01-11T13:54:51;29.27;;;12.50;;
8159;SDS011;27404;52.398;9.646;2024-01-11T13:57:17;32.67;;;12.47;;
8159;SDS011;27404;52.398;9.646;2024-01-11T13:59:42;34.60;;;13.50;;
8159;SDS011;27404;52.398;9.646;2024-01-11T14:02:08;30.83;;;13.37;;
8159;SDS011;27404;52.398;9.646;2024-01-11T14:04:33;26.60;;;12.77;;
8159;SDS011;27404;52.398;9.646;2024-01-11T14:06:59;29.47;;;13.47;;
8159;SDS011;27404;52.398;9.646;2024-01-11T14:09:25;30.00;;;15.03;;
8159;SDS011;27404;52.398;9.646;2024-01-11T14:11:51;29.17;;;13.00;;
8159;SDS011;27404;52.398;9.646;2024-01-11T14:14:17;29.97;;;13.10;;
8159;SDS011;27404;52.398;9.646;2024-01-11T14:16:44;31.00;;;14.80;;
8159;SDS011;27404;52.398;9.646;2024-01-11T14:19:10;31.27;;;13.93;;
8159;SDS011;27404;52.398;9.646;2024-01-11T14:21:36;28.97;;;12.67;;
8159;SDS011;27404;52.398;9.646;2024-01-11T14:24:02;31.23;;;14.20;;
8159;SDS011;27404;52.398;9.646;2024-01-11T14:26:29;30.70;;;14.20;;
8159;SDS011;27404;52.398;9.646;2024-01-11T14:28:54;29.50;;;13.20;;
8159;SDS011;27404;52.398;9.646;2024-01-11T14:31:20;31.10;;;13.43;;
8159;SDS011;27404;52.398;9.646;2024-01-11T14:33:45;34.00;;;15.10;;